createdAt,value
2023-05-05T00:02:19.207Z,12.26
2023-05-05T00:07:21.059Z,12.24
2023-05-05T00:12:22.865Z,12.20
2023-05-05T00:17:24.749Z,12.22
2023-05-05T00:22:26.513Z,12.19
2023-05-05T00:27:28.255Z,12.16
2023-05-05T00:32:30.040Z,12.12
2023-05-05T00:37:31.860Z,12.02
2023-05-05T00:42:47.221Z,11.98
2023-05-05T00:47:54.209Z,11.97
2023-05-05T00:53:06.102Z,11.95
2023-05-05T00:58:08.894Z,11.98
2023-05-05T01:03:12.854Z,11.98
2023-05-05T01:08:43.610Z,11.98
2023-05-05T01:14:19.381Z,11.95
2023-05-05T01:20:20.756Z,11.92
2023-05-05T01:26:16.836Z,11.88
2023-05-05T01:32:01.297Z,11.84
2023-05-05T01:37:22.254Z,11.81
2023-05-05T01:42:26.700Z,11.76
2023-05-05T01:47:31.398Z,11.69
2023-05-05T01:52:37.480Z,11.59
2023-05-05T01:57:42.651Z,11.48
2023-05-05T02:02:49.266Z,11.42
2023-05-05T02:07:58.832Z,11.38
2023-05-05T02:13:02.870Z,11.30
2023-05-05T02:18:07.581Z,11.22
2023-05-05T02:23:09.763Z,11.14
2023-05-05T02:28:23.080Z,11.12
2023-05-05T02:33:29.059Z,11.08
2023-05-05T02:38:32.615Z,11.11
2023-05-05T02:43:38.751Z,11.11
2023-05-05T02:48:40.621Z,11.12
2023-05-05T02:53:42.639Z,11.15
2023-05-05T02:59:03.424Z,11.15
2023-05-05T03:04:30.700Z,11.15
2023-05-05T03:09:45.787Z,11.15
2023-05-05T03:14:54.128Z,11.14
2023-05-05T03:19:57.111Z,11.13
2023-05-05T03:24:58.856Z,11.12
2023-05-05T03:30:00.750Z,11.12
2023-05-05T03:35:02.574Z,11.09
2023-05-05T03:40:05.001Z,11.06
2023-05-05T03:45:07.914Z,11.04
2023-05-05T03:50:10.191Z,10.98
2023-05-05T03:55:12.060Z,10.97
2023-05-05T04:00:15.174Z,10.95
2023-05-05T04:05:17.424Z,10.94
2023-05-05T04:10:19.178Z,10.95
2023-05-05T04:15:21.260Z,10.93
2023-05-05T04:20:23.143Z,10.92
2023-05-05T04:25:25.002Z,10.89
2023-05-05T04:30:26.791Z,10.88
2023-05-05T04:35:28.566Z,10.89
2023-05-05T04:40:30.460Z,10.90
2023-05-05T04:45:32.236Z,10.93
2023-05-05T04:50:34.084Z,11.03
2023-05-05T04:55:35.850Z,11.11
2023-05-05T05:00:37.965Z,11.19
2023-05-05T05:05:39.723Z,11.25
2023-05-05T05:10:42.170Z,11.29
2023-05-05T05:15:44.962Z,11.31
2023-05-05T05:20:46.719Z,11.39
2023-05-05T05:25:48.656Z,11.44
2023-05-05T05:30:51.939Z,11.51
2023-05-05T05:35:53.770Z,11.61
2023-05-05T05:40:55.625Z,11.71
2023-05-05T05:45:57.440Z,11.86
2023-05-05T05:50:59.365Z,11.99
2023-05-05T05:56:01.448Z,12.20
2023-05-05T06:01:04.924Z,12.70
2023-05-05T06:06:07.513Z,13.50
2023-05-05T06:11:09.310Z,13.92
2023-05-05T06:16:11.274Z,14.04
2023-05-05T06:21:13.452Z,13.90
2023-05-05T06:26:16.023Z,14.61
2023-05-05T06:31:18.317Z,15.70
2023-05-05T06:36:20.198Z,16.51
2023-05-05T06:41:22.015Z,16.63
2023-05-05T06:46:23.805Z,16.42
2023-05-05T06:51:26.412Z,16.81
2023-05-05T06:56:28.328Z,17.22
2023-05-05T07:01:30.116Z,17.05
2023-05-05T07:06:32.141Z,16.73
2023-05-05T07:11:33.903Z,16.67
2023-05-05T07:16:37.200Z,16.97
2023-05-05T07:21:39.689Z,17.40
2023-05-05T07:26:41.685Z,18.37
2023-05-05T07:31:43.561Z,19.41
2023-05-05T07:36:45.455Z,20.57
2023-05-05T07:41:47.217Z,21.76
2023-05-05T07:46:49.265Z,22.12
2023-05-05T07:51:51.247Z,22.85
2023-05-05T07:56:53.336Z,23.07
2023-05-05T08:01:55.174Z,23.15
2023-05-05T08:06:56.978Z,23.40
2023-05-05T08:11:58.752Z,23.66
2023-05-05T08:17:00.632Z,23.86
2023-05-05T08:22:02.529Z,23.87
2023-05-05T08:27:04.410Z,24.04
2023-05-05T08:32:06.239Z,24.21
2023-05-05T08:37:08.024Z,23.83
2023-05-05T08:42:09.838Z,24.36
2023-05-05T08:47:15.591Z,23.87
2023-05-05T08:52:24.190Z,23.46
2023-05-05T08:57:41.257Z,22.90
2023-05-05T09:02:44.714Z,22.70
2023-05-05T09:07:47.224Z,23.57
2023-05-05T09:12:51.125Z,24.07
2023-05-05T09:17:56.417Z,23.79
2023-05-05T09:22:58.270Z,23.09
2023-05-05T09:28:14.053Z,23.91
2023-05-05T09:33:31.144Z,22.79
2023-05-05T09:38:34.740Z,21.80
2023-05-05T09:43:51.942Z,20.52
2023-05-05T09:48:53.957Z,20.04
2023-05-05T09:53:55.752Z,20.83
2023-05-05T09:59:09.794Z,21.96
2023-05-05T10:04:30.275Z,22.33
2023-05-05T10:09:32.500Z,21.23
2023-05-05T10:14:35.761Z,20.45
2023-05-05T10:19:40.730Z,21.21
2023-05-05T10:25:02.728Z,21.18
2023-05-05T10:30:08.043Z,21.15
2023-05-05T10:35:16.304Z,21.19
2023-05-05T10:40:18.325Z,20.75
2023-05-05T10:45:20.285Z,20.61
2023-05-05T10:50:38.845Z,20.79
2023-05-05T10:56:27.384Z,20.72
2023-05-05T11:01:35.323Z,20.80
2023-05-05T11:06:37.386Z,20.64
2023-05-05T11:12:08.254Z,20.92
2023-05-05T11:17:46.587Z,21.21
2023-05-05T11:23:03.853Z,20.85
2023-05-05T11:28:13.436Z,20.91
2023-05-05T11:33:31.535Z,21.20
2023-05-05T11:38:36.314Z,20.65
2023-05-05T11:43:39.839Z,19.98
2023-05-05T11:55:41.915Z,20.93
2023-05-05T12:00:43.705Z,21.18
2023-05-05T12:05:47.610Z,21.16
2023-05-05T12:10:49.435Z,21.00
2023-05-05T12:15:51.265Z,21.01
2023-05-05T12:20:53.295Z,20.84
2023-05-05T12:25:55.148Z,21.13
2023-05-05T12:30:58.925Z,21.31
2023-05-05T12:36:00.964Z,21.34
2023-05-05T12:41:03.204Z,21.54
2023-05-05T12:46:12.508Z,21.65
2023-05-05T12:51:25.569Z,21.66
2023-05-05T12:56:42.885Z,21.54
2023-05-05T13:01:53.472Z,21.55
2023-05-05T13:07:11.616Z,21.59
2023-05-05T13:12:14.451Z,21.59
2023-05-05T13:17:16.252Z,21.59
2023-05-05T13:22:18.043Z,21.43
2023-05-05T13:27:20.716Z,21.39
2023-05-05T13:32:22.982Z,21.32
2023-05-05T13:37:24.888Z,21.26
2023-05-05T13:42:26.687Z,21.33
2023-05-05T13:47:29.262Z,21.28
2023-05-05T13:52:33.169Z,21.16
2023-05-05T13:57:35.428Z,21.07
2023-05-05T14:02:37.226Z,21.04
2023-05-05T14:07:39.098Z,21.02
2023-05-05T14:12:40.991Z,20.93
2023-05-05T14:17:42.817Z,20.76
2023-05-05T14:22:44.697Z,20.78
2023-05-05T14:27:46.799Z,20.86
2023-05-05T14:32:48.716Z,20.90
2023-05-05T14:37:50.581Z,20.85
2023-05-05T14:42:52.491Z,20.60
2023-05-05T14:47:54.357Z,20.47
2023-05-05T14:52:56.286Z,20.32
2023-05-05T14:57:58.176Z,20.38
2023-05-05T15:03:00.086Z,20.39
2023-05-05T15:08:02.130Z,20.42
2023-05-05T15:13:03.973Z,20.46
2023-05-05T15:18:06.362Z,20.48
2023-05-05T15:23:08.699Z,20.31
2023-05-05T15:28:10.594Z,20.40
2023-05-05T15:33:12.338Z,20.44
2023-05-05T15:38:14.174Z,20.12
2023-05-05T15:43:15.940Z,20.08
2023-05-05T15:48:18.410Z,20.00
2023-05-05T15:53:20.588Z,19.97
2023-05-05T15:58:22.490Z,19.90
2023-05-05T16:03:24.482Z,19.79
2023-05-05T16:08:26.375Z,19.70
2023-05-05T16:13:28.349Z,19.66
2023-05-05T16:18:30.076Z,19.64
2023-05-05T16:23:31.935Z,19.58
2023-05-05T16:28:34.258Z,19.43
2023-05-05T16:33:40.777Z,19.35
2023-05-05T16:38:43.705Z,19.34
2023-05-05T16:43:46.234Z,19.24
2023-05-05T16:48:48.029Z,19.13
2023-05-05T16:53:50.104Z,19.07
2023-05-05T16:58:52.446Z,18.95
2023-05-05T17:03:55.463Z,18.84
2023-05-05T17:08:57.455Z,18.73
2023-05-05T17:13:59.301Z,18.63
2023-05-05T17:19:01.130Z,18.67
2023-05-05T17:24:03.388Z,18.61
2023-05-05T17:29:05.239Z,18.47
2023-05-05T17:34:07.301Z,18.36
2023-05-05T17:39:11.258Z,18.24
2023-05-05T17:44:13.185Z,18.22
2023-05-05T17:49:15.011Z,18.13
2023-05-05T17:54:17.082Z,18.04
2023-05-05T17:59:18.920Z,17.94
2023-05-05T18:04:20.779Z,17.81
2023-05-05T18:09:23.360Z,17.67
2023-05-05T18:14:25.181Z,17.63
2023-05-05T18:19:26.980Z,17.55
2023-05-05T18:24:29.388Z,17.46
2023-05-05T18:29:31.188Z,17.33
2023-05-05T18:34:32.984Z,17.26
2023-05-05T18:39:34.798Z,17.11
2023-05-05T18:44:36.547Z,17.01
2023-05-05T18:49:38.502Z,16.99
2023-05-05T18:54:40.895Z,16.89
2023-05-05T18:59:42.669Z,16.82
2023-05-05T19:04:44.841Z,16.72
2023-05-05T19:09:46.891Z,16.71
2023-05-05T19:14:48.734Z,16.50
2023-05-05T19:19:50.656Z,16.36
2023-05-05T19:24:52.383Z,16.27
2023-05-05T19:29:54.149Z,16.13
2023-05-05T19:34:56.416Z,16.10
2023-05-05T19:39:58.164Z,16.08
2023-05-05T19:45:01.188Z,16.05
2023-05-05T19:50:03.097Z,16.05
2023-05-05T19:55:05.667Z,15.95
2023-05-05T20:00:10.466Z,15.55
2023-05-05T20:05:17.123Z,14.93
2023-05-05T20:10:19.137Z,14.79
2023-05-05T20:15:22.188Z,14.71
2023-05-05T20:20:23.986Z,14.61
2023-05-05T20:25:25.773Z,14.52
2023-05-05T20:30:27.563Z,14.53
2023-05-05T20:35:29.452Z,14.52
2023-05-05T20:40:33.210Z,14.52
2023-05-05T20:45:35.269Z,14.46
2023-05-05T20:50:41.878Z,14.34
2023-05-05T20:55:43.627Z,14.30
2023-05-05T21:00:47.353Z,14.20
2023-05-05T21:05:49.245Z,14.18
2023-05-05T21:10:50.976Z,14.14
2023-05-05T21:15:52.765Z,14.11
2023-05-05T21:20:54.786Z,14.08
2023-05-05T21:25:56.531Z,14.10
2023-05-05T21:31:19.732Z,14.08
2023-05-05T21:36:21.189Z,14.02
2023-05-05T21:41:23.741Z,14.02
2023-05-05T21:46:25.787Z,13.98
2023-05-05T21:51:27.658Z,14.03
2023-05-05T21:56:29.432Z,13.92
2023-05-05T22:01:32.256Z,13.81
2023-05-05T22:06:34.268Z,13.78
2023-05-05T22:11:36.170Z,13.76
2023-05-05T22:16:38.069Z,13.69
2023-05-05T22:21:39.939Z,13.47
2023-05-05T22:26:43.242Z,13.18
2023-05-05T22:31:45.420Z,12.95
2023-05-05T22:36:48.257Z,12.72
2023-05-05T22:41:50.048Z,12.55
2023-05-05T22:46:51.887Z,12.46
2023-05-05T22:51:53.764Z,12.45
2023-05-05T22:56:55.542Z,12.40
2023-05-05T23:01:57.399Z,12.33
2023-05-05T23:06:59.264Z,12.23
2023-05-05T23:12:01.812Z,12.13
2023-05-05T23:17:03.723Z,12.08
2023-05-05T23:22:06.087Z,12.00
2023-05-05T23:27:07.888Z,11.73
2023-05-05T23:32:09.758Z,11.41
2023-05-05T23:37:14.450Z,11.24
2023-05-05T23:42:16.231Z,11.02
2023-05-05T23:47:18.012Z,10.85
2023-05-05T23:52:19.786Z,10.73
2023-05-05T23:57:22.120Z,10.60
